createdAt,value
2018-12-09T00:01:57.081Z,0.75
2018-12-09T00:04:26.454Z,0.85
2018-12-09T00:06:55.981Z,0.90
2018-12-09T00:09:25.311Z,1.70
2018-12-09T00:11:54.806Z,0.70
2018-12-09T00:14:24.279Z,0.68
2018-12-09T00:16:53.651Z,0.60
2018-12-09T00:19:23.776Z,0.60
2018-12-09T00:21:53.339Z,0.60
2018-12-09T00:24:22.658Z,0.70
2018-12-09T00:26:52.280Z,0.60
2018-12-09T00:29:22.411Z,0.60
2018-12-09T00:31:51.948Z,0.60
2018-12-09T00:34:23.158Z,0.70
2018-12-09T00:36:52.537Z,0.60
2018-12-09T00:39:22.030Z,0.90
2018-12-09T00:41:51.391Z,0.68
2018-12-09T00:44:20.886Z,0.90
2018-12-09T00:46:52.088Z,0.60
2018-12-09T00:49:24.235Z,0.60
2018-12-09T00:51:53.609Z,0.70
2018-12-09T00:54:22.852Z,0.60
2018-12-09T00:56:52.344Z,0.68
2018-12-09T00:59:21.681Z,1.00
2018-12-09T01:01:51.043Z,0.60
2018-12-09T01:04:22.044Z,0.67
2018-12-09T01:06:52.214Z,0.62
2018-12-09T01:09:21.713Z,0.60
2018-12-09T01:11:51.918Z,1.00
2018-12-09T01:14:21.415Z,0.67
2018-12-09T01:16:51.547Z,0.65
2018-12-09T01:19:21.673Z,0.62
2018-12-09T01:21:51.067Z,0.70
2018-12-09T01:24:20.377Z,1.15
2018-12-09T01:26:49.904Z,0.60
2018-12-09T01:29:19.347Z,0.70
2018-12-09T01:31:49.493Z,0.60
2018-12-09T01:34:20.934Z,1.57
2018-12-09T01:36:56.702Z,0.60
2018-12-09T01:39:26.028Z,0.77
2018-12-09T01:41:57.320Z,1.00
2018-12-09T01:44:26.737Z,0.60
2018-12-09T01:46:56.882Z,0.60
2018-12-09T01:49:26.241Z,0.70
2018-12-09T01:51:55.663Z,0.70
2018-12-09T01:54:24.979Z,0.70
2018-12-09T01:56:56.154Z,0.90
2018-12-09T01:59:27.233Z,0.60
2018-12-09T02:01:56.650Z,0.90
2018-12-09T02:04:26.973Z,1.17
2018-12-09T02:06:56.428Z,0.60
2018-12-09T02:09:26.830Z,0.60
2018-12-09T02:11:57.341Z,0.60
2018-12-09T02:14:27.031Z,2.10
2018-12-09T02:16:56.450Z,0.80
2018-12-09T02:19:26.971Z,1.07
2018-12-09T02:21:56.406Z,0.80
2018-12-09T02:24:25.896Z,0.60
2018-12-09T02:26:56.787Z,2.90
2018-12-09T02:29:26.102Z,4.10
2018-12-09T02:31:55.525Z,0.88
2018-12-09T02:34:25.076Z,0.50
2018-12-09T02:36:54.456Z,0.60
2018-12-09T02:39:23.891Z,1.10
2018-12-09T02:41:53.342Z,1.13
2018-12-09T02:44:23.139Z,0.60
2018-12-09T02:46:52.549Z,0.60
2018-12-09T02:49:21.907Z,0.60
2018-12-09T02:51:51.277Z,0.70
2018-12-09T02:54:20.564Z,0.70
2018-12-09T02:56:50.673Z,0.60
2018-12-09T02:59:20.099Z,1.57
2018-12-09T03:01:49.461Z,0.70
2018-12-09T03:04:18.898Z,1.63
2018-12-09T03:06:50.009Z,0.62
2018-12-09T03:09:20.600Z,1.43
2018-12-09T03:11:52.590Z,0.93
2018-12-09T03:14:21.968Z,1.40
2018-12-09T03:16:51.414Z,0.60
2018-12-09T03:19:20.837Z,0.70
2018-12-09T03:21:50.973Z,0.67
2018-12-09T03:24:20.535Z,1.90
2018-12-09T03:26:49.894Z,0.60
2018-12-09T03:29:19.339Z,0.60
2018-12-09T03:31:48.782Z,1.73
2018-12-09T03:34:18.383Z,0.73
2018-12-09T03:36:48.915Z,0.70
2018-12-09T03:39:18.632Z,2.30
2018-12-09T03:41:52.058Z,1.27
2018-12-09T03:44:23.124Z,0.63
2018-12-09T03:46:52.737Z,1.72
2018-12-09T03:49:22.771Z,0.60
2018-12-09T03:51:52.169Z,0.70
2018-12-09T03:54:24.094Z,0.73
2018-12-09T03:56:53.891Z,0.60
2018-12-09T03:59:24.930Z,1.47
2018-12-09T04:01:55.106Z,3.63
2018-12-09T04:04:24.430Z,0.70
2018-12-09T04:06:53.737Z,1.02
2018-12-09T04:09:23.069Z,0.60
2018-12-09T04:11:54.062Z,0.60
2018-12-09T04:14:23.478Z,0.90
2018-12-09T04:16:52.834Z,1.20
2018-12-09T04:19:22.394Z,3.33
2018-12-09T04:21:51.858Z,0.60
2018-12-09T04:24:21.143Z,4.40
2018-12-09T04:26:51.904Z,0.83
2018-12-09T04:29:21.810Z,1.00
2018-12-09T04:31:52.638Z,0.73
2018-12-09T04:34:21.973Z,0.70
2018-12-09T04:36:52.181Z,0.97
2018-12-09T04:39:22.175Z,0.90
2018-12-09T04:41:53.327Z,0.70
2018-12-09T04:44:22.721Z,5.45
2018-12-09T04:46:52.081Z,1.80
2018-12-09T04:49:21.483Z,3.07
2018-12-09T04:51:55.741Z,3.07
2018-12-09T04:54:26.388Z,0.60
2018-12-09T04:56:55.735Z,1.27
2018-12-09T04:59:26.303Z,0.70
2018-12-09T05:01:55.785Z,1.03
2018-12-09T05:04:26.688Z,0.70
2018-12-09T05:35:49.990Z,0.63
2018-12-09T05:38:19.360Z,0.60
2018-12-09T05:40:49.752Z,0.70
2018-12-09T05:43:19.264Z,1.10
2018-12-09T05:45:50.128Z,1.24
2018-12-09T05:48:19.576Z,0.80
2018-12-09T05:51:21.704Z,2.83
2018-12-09T05:53:51.190Z,1.40
2018-12-09T05:56:20.610Z,3.33
2018-12-09T05:58:50.706Z,1.60
2018-12-09T06:01:20.100Z,1.47
2018-12-09T06:03:49.444Z,1.40
2018-12-09T06:06:20.113Z,2.30
2018-12-09T06:08:49.427Z,1.83
2018-12-09T06:11:19.240Z,1.60
2018-12-09T06:13:49.280Z,1.37
2018-12-09T06:16:19.328Z,1.43
2018-12-09T06:18:50.472Z,2.60
2018-12-09T06:21:20.258Z,3.00
2018-12-09T06:23:50.704Z,1.77
2018-12-09T06:26:20.092Z,4.73
2018-12-09T06:28:49.464Z,1.87
2018-12-09T06:31:20.557Z,0.80
2018-12-09T06:36:40.574Z,3.63
2018-12-09T06:39:09.677Z,0.70
2018-12-09T06:41:38.760Z,1.53
2018-12-09T06:44:07.873Z,1.10
2018-12-09T06:46:36.982Z,1.60
2018-12-09T06:49:06.064Z,1.05
2018-12-09T06:51:35.660Z,0.80
2018-12-09T06:54:04.776Z,2.55
2018-12-09T06:56:33.886Z,0.97
2018-12-09T06:59:03.054Z,1.27
2018-12-09T07:01:32.402Z,1.20
2018-12-09T07:04:01.897Z,1.10
2018-12-09T07:06:30.999Z,1.77
2018-12-09T07:09:00.167Z,0.90
2018-12-09T07:11:29.511Z,0.70
2018-12-09T07:13:58.553Z,1.30
2018-12-09T07:16:27.793Z,3.17
2018-12-09T07:18:57.052Z,1.22
2018-12-09T07:21:26.240Z,0.90
2018-12-09T07:23:55.375Z,3.60
2018-12-09T07:26:24.944Z,1.00
2018-12-09T07:28:54.048Z,1.07
2018-12-09T07:31:23.218Z,0.77
2018-12-09T07:33:52.357Z,0.70
2018-12-09T07:36:21.459Z,3.33
2018-12-09T07:38:51.073Z,1.10
2018-12-09T07:41:20.175Z,1.67
2018-12-09T07:43:50.058Z,1.05
2018-12-09T07:46:20.061Z,0.70
2018-12-09T07:48:50.005Z,0.90
2018-12-09T07:51:20.057Z,1.45
2018-12-09T07:53:50.258Z,0.85
2018-12-09T07:56:20.107Z,0.95
2018-12-09T08:01:29.118Z,2.10
2018-12-09T08:03:58.533Z,2.00
2018-12-09T08:06:27.889Z,3.07
2018-12-09T08:08:57.382Z,1.70
2018-12-09T08:11:28.419Z,1.40
2018-12-09T08:13:58.587Z,1.82
2018-12-09T08:16:28.780Z,2.60
2018-12-09T08:18:58.349Z,2.40
2018-12-09T08:21:27.791Z,2.60
2018-12-09T08:23:57.161Z,3.87
2018-12-09T08:26:28.223Z,1.68
2018-12-09T08:28:57.589Z,2.73
2018-12-09T08:31:27.066Z,1.80
2018-12-09T08:33:56.463Z,2.02
2018-12-09T08:36:25.935Z,3.47
2018-12-09T08:38:57.324Z,5.30
2018-12-09T08:41:28.422Z,3.53
2018-12-09T08:43:57.875Z,1.98
2018-12-09T08:46:27.337Z,1.90
2018-12-09T08:48:58.561Z,2.50
2018-12-09T08:51:27.985Z,4.75
2018-12-09T08:53:57.441Z,2.83
2018-12-09T08:56:26.831Z,6.10
2018-12-09T08:58:56.243Z,2.30
2018-12-09T09:01:26.530Z,2.83
2018-12-09T09:03:58.382Z,4.13
2018-12-09T09:06:27.789Z,4.28
2018-12-09T09:08:57.151Z,4.62
2018-12-09T09:11:26.549Z,1.90
2018-12-09T09:13:55.965Z,2.58
2018-12-09T09:16:27.107Z,2.80
2018-12-09T09:18:56.529Z,1.17
2018-12-09T09:21:25.933Z,7.70
2018-12-09T09:23:55.267Z,3.10
2018-12-09T09:26:24.669Z,3.60
2018-12-09T09:28:54.031Z,2.83
2018-12-09T09:31:23.488Z,5.33
2018-12-09T09:33:52.990Z,3.20
2018-12-09T09:36:22.566Z,4.50
2018-12-09T09:38:52.221Z,1.13
2018-12-09T09:41:23.034Z,2.80
2018-12-09T09:43:53.378Z,3.53
2018-12-09T09:46:23.171Z,4.58
2018-12-09T09:48:52.636Z,3.40
2018-12-09T09:51:23.223Z,3.75
2018-12-09T09:53:53.756Z,6.20
2018-12-09T09:56:23.093Z,2.23
2018-12-09T09:58:52.563Z,3.30
2018-12-09T10:01:23.964Z,2.52
2018-12-09T10:03:57.228Z,1.97
2018-12-09T10:06:26.654Z,3.67
2018-12-09T10:08:55.968Z,3.07
2018-12-09T10:11:25.361Z,2.60
2018-12-09T10:13:54.850Z,2.80
2018-12-09T10:16:24.179Z,2.80
2018-12-09T10:18:53.561Z,8.80
2018-12-09T10:21:23.069Z,3.50
2018-12-09T10:23:53.792Z,1.74
2018-12-09T10:26:23.319Z,2.10
2018-12-09T10:28:53.761Z,2.65
2018-12-09T10:31:23.851Z,6.87
2018-12-09T10:33:53.762Z,3.40
2018-12-09T10:36:23.514Z,3.07
2018-12-09T10:38:53.004Z,2.67
2018-12-09T10:41:22.484Z,4.03
2018-12-09T10:43:52.565Z,5.47
2018-12-09T10:46:22.636Z,3.30
2018-12-09T10:48:54.497Z,6.30
2018-12-09T10:51:23.988Z,4.00
2018-12-09T10:53:54.219Z,2.63
2018-12-09T10:56:24.060Z,4.87
2018-12-09T10:58:54.371Z,2.07
2018-12-09T11:01:47.504Z,5.40
2018-12-09T11:04:17.827Z,4.73
2018-12-09T11:06:48.927Z,3.43
2018-12-09T11:09:18.491Z,5.20
2018-12-09T11:11:48.655Z,4.43
2018-12-09T11:17:06.975Z,3.20
2018-12-09T11:19:36.401Z,5.03
2018-12-09T11:22:07.427Z,6.83
2018-12-09T11:24:37.608Z,5.00
2018-12-09T11:27:08.874Z,6.15
2018-12-09T11:29:38.584Z,6.37
2018-12-09T11:32:08.724Z,3.90
2018-12-09T11:34:38.122Z,3.37
2018-12-09T11:37:08.327Z,6.20
2018-12-09T11:39:39.066Z,5.37
2018-12-09T11:42:08.718Z,6.83
2018-12-09T11:44:38.296Z,4.08
2018-12-09T11:47:10.508Z,5.12
2018-12-09T11:49:39.798Z,4.90
2018-12-09T11:52:10.786Z,6.90
2018-12-09T11:54:40.910Z,8.45
2018-12-09T11:57:11.147Z,6.60
2018-12-09T11:59:41.572Z,8.43
2018-12-09T12:02:11.136Z,6.50
2018-12-09T12:04:41.437Z,6.30
2018-12-09T12:07:10.866Z,5.50
2018-12-09T12:09:40.346Z,6.73
2018-12-09T12:12:09.801Z,6.30
2018-12-09T12:14:39.311Z,9.45
2018-12-09T12:17:08.725Z,7.20
2018-12-09T12:19:40.342Z,7.87
2018-12-09T12:22:11.404Z,7.73
2018-12-09T12:24:41.013Z,5.90
2018-12-09T12:27:10.458Z,4.87
2018-12-09T12:29:41.455Z,8.93
2018-12-09T12:32:11.667Z,6.30
2018-12-09T12:34:41.815Z,4.40
2018-12-09T12:37:11.201Z,5.23
2018-12-09T12:39:40.601Z,3.90
2018-12-09T12:42:10.075Z,3.42
2018-12-09T12:44:41.408Z,3.33
2018-12-09T12:47:11.654Z,4.53
2018-12-09T12:49:44.053Z,3.60
2018-12-09T12:52:15.940Z,3.97
2018-12-09T12:54:45.607Z,4.20
2018-12-09T12:57:17.409Z,3.23
2018-12-09T12:59:46.896Z,5.20
2018-12-09T13:02:18.499Z,3.03
2018-12-09T13:04:48.055Z,4.57
2018-12-09T13:07:17.486Z,5.20
2018-12-09T13:09:46.970Z,8.20
2018-12-09T13:12:16.493Z,2.47
2018-12-09T13:14:48.127Z,2.97
2018-12-09T13:17:17.527Z,5.20
2018-12-09T13:19:46.983Z,2.40
2018-12-09T13:22:19.148Z,4.73
2018-12-09T13:24:49.240Z,4.80
2018-12-09T13:27:20.008Z,1.90
2018-12-09T13:29:49.417Z,6.30
2018-12-09T13:32:19.324Z,2.40
2018-12-09T13:34:48.726Z,5.60
2018-12-09T13:37:18.055Z,2.67
2018-12-09T13:39:47.510Z,4.90
2018-12-09T13:42:18.762Z,2.33
2018-12-09T13:44:48.765Z,5.60
2018-12-09T13:47:18.255Z,4.23
2018-12-09T13:49:47.677Z,5.67
2018-12-09T13:52:17.275Z,3.00
2018-12-09T13:54:46.812Z,2.77
2018-12-09T13:57:16.265Z,5.23
2018-12-09T13:59:45.743Z,3.40
2018-12-09T14:02:15.990Z,3.43
2018-12-09T14:04:46.298Z,9.50
2018-12-09T14:07:17.595Z,7.50
2018-12-09T14:09:47.369Z,3.57
2018-12-09T14:12:16.931Z,3.45
2018-12-09T14:14:46.824Z,7.10
2018-12-09T14:17:16.413Z,3.70
2018-12-09T14:19:45.945Z,5.93
2018-12-09T14:22:15.821Z,3.30
2018-12-09T14:24:45.470Z,6.47
2018-12-09T14:27:15.712Z,7.30
2018-12-09T14:29:45.939Z,7.00
2018-12-09T14:32:15.807Z,5.40
2018-12-09T14:34:45.273Z,6.47
2018-12-09T14:37:15.077Z,8.27
2018-12-09T14:39:46.417Z,3.43
2018-12-09T14:42:16.575Z,4.67
2018-12-09T14:44:47.709Z,9.27
2018-12-09T14:47:20.909Z,10.10
2018-12-09T14:49:51.104Z,5.63
2018-12-09T14:52:20.825Z,9.30
2018-12-09T14:54:51.278Z,7.17
2018-12-09T14:57:20.899Z,5.77
2018-12-09T14:59:53.891Z,6.53
2018-12-09T15:02:25.009Z,4.57
2018-12-09T15:04:55.842Z,3.72
2018-12-09T15:07:25.453Z,7.40
2018-12-09T15:09:57.756Z,6.80
2018-12-09T15:12:28.283Z,8.40
2018-12-09T15:14:58.149Z,5.10
2018-12-09T15:17:28.031Z,4.47
2018-12-09T15:19:59.126Z,5.87
2018-12-09T15:22:28.752Z,4.30
2018-12-09T15:24:58.314Z,1.63
2018-12-09T15:27:27.975Z,5.33
2018-12-09T15:29:59.166Z,2.87
2018-12-09T15:32:29.870Z,4.40
2018-12-09T15:34:59.406Z,1.90
2018-12-09T15:37:29.720Z,1.57
2018-12-09T15:39:59.463Z,2.37
2018-12-09T15:42:31.605Z,1.60
2018-12-09T15:45:01.830Z,1.40
2018-12-09T15:47:31.449Z,1.42
2018-12-09T15:50:01.743Z,1.50
2018-12-09T15:52:31.742Z,1.90
2018-12-09T15:55:03.406Z,1.20
2018-12-09T15:57:32.966Z,1.13
2018-12-09T16:00:03.312Z,1.43
2018-12-09T16:02:33.354Z,1.20
2018-12-09T16:05:02.970Z,1.32
2018-12-09T16:07:32.558Z,1.10
2018-12-09T16:10:02.104Z,2.35
2018-12-09T16:12:31.526Z,1.20
2018-12-09T16:15:01.671Z,2.60
2018-12-09T16:17:31.178Z,1.07
2018-12-09T16:20:01.317Z,1.80
2018-12-09T16:22:31.504Z,2.10
2018-12-09T16:25:01.707Z,2.73
2018-12-09T16:27:31.059Z,1.73
2018-12-09T16:30:01.445Z,1.13
2018-12-09T16:32:30.733Z,1.00
2018-12-09T16:35:00.068Z,1.30
2018-12-09T16:37:30.325Z,2.13
2018-12-09T16:39:59.689Z,1.17
2018-12-09T16:42:29.898Z,3.30
2018-12-09T16:44:59.498Z,2.30
2018-12-09T16:47:29.051Z,1.30
2018-12-09T16:50:00.044Z,1.30
2018-12-09T16:52:30.973Z,1.63
2018-12-09T16:55:00.510Z,3.30
2018-12-09T16:57:30.322Z,1.13
2018-12-09T16:59:59.892Z,3.20
2018-12-09T17:02:29.382Z,2.90
2018-12-09T17:04:59.882Z,2.37
2018-12-09T17:07:29.430Z,2.30
2018-12-09T17:10:02.053Z,0.90
2018-12-09T17:12:31.601Z,1.13
2018-12-09T17:15:01.115Z,1.17
2018-12-09T17:17:30.862Z,2.30
2018-12-09T17:20:06.306Z,3.83
2018-12-09T17:22:34.672Z,2.35
2018-12-09T17:25:05.901Z,0.90
2018-12-09T17:27:36.174Z,2.10
2018-12-09T17:30:06.255Z,1.17
2018-12-09T17:32:36.693Z,1.00
2018-12-09T17:35:07.245Z,3.30
2018-12-09T17:37:36.867Z,2.53
2018-12-09T17:40:07.991Z,1.92
2018-12-09T17:42:37.457Z,1.27
2018-12-09T17:45:07.173Z,1.30
2018-12-09T17:47:36.533Z,3.37
2018-12-09T17:50:06.425Z,1.50
2018-12-09T17:55:56.396Z,1.70
2018-12-09T17:58:25.820Z,1.20
2018-12-09T18:00:55.396Z,1.30
2018-12-09T18:03:24.799Z,1.00
2018-12-09T18:05:55.380Z,1.53
2018-12-09T18:08:24.850Z,3.27
2018-12-09T18:10:54.264Z,1.30
2018-12-09T18:13:23.795Z,0.90
2018-12-09T18:15:58.493Z,2.10
2018-12-09T18:18:31.571Z,2.30
2018-12-09T18:21:01.779Z,1.23
2018-12-09T18:23:33.122Z,1.03
2018-12-09T18:26:02.494Z,1.07
2018-12-09T18:28:31.896Z,1.20
2018-12-09T18:31:01.424Z,1.00
2018-12-09T18:33:31.011Z,1.23
2018-12-09T18:36:04.091Z,1.00
2018-12-09T18:38:33.554Z,0.93
2018-12-09T18:41:05.518Z,1.67
2018-12-09T18:43:38.423Z,1.55
2018-12-09T18:46:10.673Z,2.40
2018-12-09T18:48:40.181Z,1.32
2018-12-09T19:33:26.967Z,1.00
2018-12-09T19:35:57.506Z,1.57
2018-12-09T19:38:26.871Z,1.50
2018-12-09T19:40:56.389Z,1.60
2018-12-09T19:43:25.847Z,1.10
2018-12-09T19:45:55.343Z,1.37
2018-12-09T19:48:24.856Z,2.60
2018-12-09T19:50:54.369Z,2.17
2018-12-09T19:53:24.803Z,1.30
2018-12-09T19:55:54.324Z,1.53
2018-12-09T19:58:23.852Z,1.83
2018-12-09T20:00:57.990Z,1.40
2018-12-09T20:03:27.509Z,1.50
2018-12-09T20:05:57.028Z,5.53
2018-12-09T20:08:26.527Z,1.43
2018-12-09T20:10:56.187Z,2.10
2018-12-09T20:13:25.683Z,1.30
2018-12-09T20:15:55.213Z,1.23
2018-12-09T20:18:24.598Z,3.27
2018-12-09T20:20:56.238Z,1.03
2018-12-09T20:23:25.961Z,1.07
2018-12-09T20:25:55.584Z,1.60
2018-12-09T20:28:25.540Z,4.17
2018-12-09T20:30:55.188Z,1.60
2018-12-09T20:33:26.116Z,1.13
2018-12-09T20:35:55.839Z,1.13
2018-12-09T20:38:25.350Z,4.23
2018-12-09T20:40:54.969Z,4.03
2018-12-09T20:43:24.503Z,2.30
2018-12-09T20:45:53.877Z,2.40
2018-12-09T20:48:23.273Z,1.73
2018-12-09T20:50:54.532Z,2.60
2018-12-09T20:53:23.907Z,1.50
2018-12-09T20:55:53.481Z,3.00
2018-12-09T20:58:23.027Z,2.53
2018-12-09T21:00:52.431Z,1.57
2018-12-09T21:03:22.233Z,1.50
2018-12-09T21:05:51.747Z,3.13
2018-12-09T21:08:21.181Z,2.07
2018-12-09T21:10:51.961Z,2.13
2018-12-09T21:13:21.486Z,1.40
2018-12-09T21:15:50.916Z,1.50
2018-12-09T21:18:20.438Z,1.60
2018-12-09T21:20:51.480Z,1.67
2018-12-09T21:23:21.249Z,1.90
2018-12-09T21:25:50.697Z,1.77
2018-12-09T21:28:22.044Z,2.33
2018-12-09T21:30:51.400Z,1.40
2018-12-09T21:33:21.565Z,1.47
2018-12-09T21:35:51.046Z,1.67
2018-12-09T21:38:20.563Z,1.83
2018-12-09T21:40:49.956Z,1.57
2018-12-09T21:43:19.435Z,1.50
2018-12-09T21:45:49.603Z,1.45
2018-12-09T21:48:18.973Z,1.98
2018-12-09T21:50:49.148Z,3.07
2018-12-09T21:53:18.550Z,1.15
2018-12-09T21:55:50.102Z,3.23
2018-12-09T21:58:24.248Z,2.33
2018-12-09T22:00:53.546Z,3.40
2018-12-09T22:03:23.667Z,1.70
2018-12-09T22:05:53.060Z,2.65
2018-12-09T22:08:26.109Z,1.47
2018-12-09T22:10:55.534Z,1.93
2018-12-09T22:13:24.817Z,3.13
2018-12-09T22:15:56.468Z,2.07
2018-12-09T22:18:25.747Z,2.27
2018-12-09T22:20:55.212Z,2.20
2018-12-09T22:23:27.976Z,3.90
2018-12-09T22:25:59.014Z,2.27
2018-12-09T22:28:28.308Z,2.43
2018-12-09T22:30:58.346Z,2.23
2018-12-09T22:33:28.453Z,1.53
2018-12-09T22:35:59.526Z,1.40
2018-12-09T22:38:28.897Z,4.37
2018-12-09T22:40:58.200Z,3.70
2018-12-09T22:43:27.544Z,1.57
2018-12-09T22:45:56.994Z,4.20
2018-12-09T22:48:27.011Z,3.40
2018-12-09T22:50:57.065Z,2.00
2018-12-09T22:53:27.246Z,1.43
2018-12-09T22:55:57.208Z,3.20
2018-12-09T22:58:26.530Z,2.72
2018-12-09T23:01:01.118Z,3.23
2018-12-09T23:03:31.506Z,1.97
2018-12-09T23:06:02.012Z,1.97
2018-12-09T23:08:31.893Z,2.70
2018-12-09T23:11:02.245Z,2.70
2018-12-09T23:13:34.790Z,3.17
2018-12-09T23:16:05.086Z,3.00
2018-12-09T23:18:34.510Z,5.57
2018-12-09T23:21:05.728Z,8.40
2018-12-09T23:23:35.095Z,3.57
2018-12-09T23:26:07.123Z,6.47
2018-12-09T23:28:38.073Z,2.15
2018-12-09T23:31:07.436Z,2.40
2018-12-09T23:33:36.786Z,4.03
2018-12-09T23:36:06.144Z,3.37
2018-12-09T23:38:35.540Z,3.30
2018-12-09T23:41:04.869Z,5.10
2018-12-09T23:43:34.201Z,1.40
2018-12-09T23:46:03.673Z,2.50
2018-12-09T23:48:34.094Z,3.77
2018-12-09T23:51:03.543Z,1.93
2018-12-09T23:53:32.926Z,4.10
2018-12-09T23:56:03.123Z,5.43
2018-12-09T23:58:32.739Z,1.20
